Time;durP1;ratioP1;P1;durP2;ratioP2;P2;SDS_P1;SDS_P2;PMS_P1;PMS_P2;Temp;Humidity;BMP_temperature;BMP_pressure;BME280_temperature;BME280_humidity;BME280_pressure;Samples;Min_cycle;Max_cycle;Signal;HPM_P1;HPM_P2
2022/08/11 07:03:14;;;;;;;;;;;;;;;22.01;39.81;100278.28;1087837;39;20395;-77
2022/08/11 07:04:33;;;;;;;;;;;;;;;22.05;39.74;100273.22;1083330;54;19954;-76
2022/08/11 07:05:42;;;;;;;;;;;;;;;22.12;39.44;100279.47;1084365;54;19939;-77
2022/08/11 07:15:40;;;;;;;;;;;;;;;22.16;39.55;100269.84;1084357;54;19961;-77
2022/08/11 07:15:44;;;;;;;;;;;;;;;22.72;38.32;100271.00;1085672;54;20528;-78
2022/08/11 07:16:47;;;;;;;;;;;;;;;22.82;38.40;100269.69;1084774;47;20425;-77
2022/08/11 07:28:54;;;;;;;;;;;;;;;22.84;37.88;100268.44;1083404;54;19950;-77
2022/08/11 07:29:43;;;;;;;;;;;;;;;23.38;37.22;100257.13;1083613;54;19951;-76
2022/08/11 07:30:46;;;;;;;;;;;;;;;23.56;37.10;100259.03;1083344;47;20266;-77
2022/08/11 07:31:52;;;;;;;;;;;;;;;23.62;36.41;100257.28;1082910;54;19982;-77
2022/08/11 07:32:59;;;;;;;;;;;;;;;23.71;36.81;100255.09;1083199;54;20484;-76
2022/08/11 07:34:10;;;;;;;;;;;;;;;23.86;36.50;100262.91;1083665;54;19950;-77
2022/08/11 07:35:19;;;;;;;;;;;;;;;24.00;36.38;100258.97;1083150;54;19958;-76
2022/08/11 07:36:22;;;;;;;;;;;;;;;23.99;36.10;100257.34;1083363;54;19982;-76
2022/08/11 07:37:27;;;;;;;;;;;;;;;23.99;36.42;100257.34;1083197;54;19947;-76
2022/08/11 07:38:42;;;;;;;;;;;;;;;24.09;36.18;100249.41;1083255;54;19951;-77
2022/08/11 07:39:48;;;;;;;;;;;;;;;24.11;35.73;100250.03;1083102;54;19969;-76
2022/08/11 07:40:49;;;;;;;;;;;;;;;24.17;35.85;100255.66;1083103;47;19974;-77
2022/08/11 07:41:55;;;;;;;;;;;;;;;24.23;35.40;100246.53;1082850;54;20038;-77
2022/08/11 07:42:58;;;;;;;;;;;;;;;24.28;35.69;100252.13;1083145;54;20426;-77
2022/08/11 07:44:07;;;;;;;;;;;;;;;24.38;34.99;100246.09;1083222;54;20432;-76
2022/08/11 07:52:54;;;;;;;;;;;;;;;25.24;33.73;100245.84;1083386;54;19947;-78
2022/08/11 07:53:55;;;;;;;;;;;;;;;25.24;33.90;100240.38;1083324;54;20390;-77
2022/08/11 07:55:01;;;;;;;;;;;;;;;25.13;33.67;100249.41;1083339;54;19946;-77
2022/08/11 07:56:05;;;;;;;;;;;;;;;25.14;33.75;100251.06;1083242;54;19947;-77
2022/08/11 08:17:56;;;;;;;;;;;;;;;26.55;31.68;100232.69;1083409;54;19942;-78
2022/08/11 08:19:00;;;;;;;;;;;;;;;26.43;30.82;100241.00;1083495;46;20018;-78
2022/08/11 08:20:02;;;;;;;;;;;;;;;26.48;30.79;100232.03;1083195;54;19947;-78
2022/08/11 08:21:16;;;;;;;;;;;;;;;26.49;30.76;100232.88;1083614;54;19945;-79
2022/08/11 08:22:19;;;;;;;;;;;;;;;26.54;30.78;100236.56;1083607;54;20050;-78
2022/08/11 08:23:31;;;;;;;;;;;;;;;26.58;30.74;100232.22;1083486;54;19950;-78
2022/08/11 08:24:33;;;;;;;;;;;;;;;26.74;30.36;100227.84;1083733;54;19958;-76
2022/08/11 08:25:39;;;;;;;;;;;;;;;26.73;30.02;100234.41;1083365;54;19950;-78
2022/08/11 08:28:01;;;;;;;;;;;;;;;26.89;30.15;100237.41;1083432;54;19962;-77
2022/08/11 08:31:39;;;;;;;;;;;;;;;26.84;29.95;100245.56;1083408;54;19943;-78
2022/08/11 08:32:43;;;;;;;;;;;;;;;26.79;30.34;100240.84;1083497;54;19939;-79
2022/08/11 08:33:47;;;;;;;;;;;;;;;26.86;29.97;100241.50;1083543;54;19946;-79
2022/08/11 08:34:49;;;;;;;;;;;;;;;26.88;29.74;100239.34;1083645;54;19938;-79
2022/08/11 08:36:10;;;;;;;;;;;;;;;27.04;29.76;100234.09;1083447;54;19954;-79
2022/08/11 08:37:17;;;;;;;;;;;;;;;27.09;29.64;100225.97;1083594;54;19947;-77
2022/08/11 08:38:21;;;;;;;;;;;;;;;27.14;29.42;100231.50;1083448;54;20862;-79
2022/08/11 08:39:22;;;;;;;;;;;;;;;27.14;29.52;100226.03;1083548;54;19966;-79
2022/08/11 08:40:26;;;;;;;;;;;;;;;27.15;29.37;100224.94;1083457;54;19946;-77
2022/08/11 08:41:28;;;;;;;;;;;;;;;27.28;29.11;100225.69;1083484;54;19966;-77
2022/08/11 08:42:34;;;;;;;;;;;;;;;27.07;29.12;100231.69;1083462;54;19951;-77
2022/08/11 08:43:36;;;;;;;;;;;;;;;27.10;29.54;100230.38;1083554;54;19977;-76
2022/08/11 08:44:44;;;;;;;;;;;;;;;27.12;29.44;100236.41;1083792;54;19947;-77
2022/08/11 08:45:48;;;;;;;;;;;;;;;27.12;29.19;100230.94;1083637;54;19947;-78
2022/08/11 08:46:55;;;;;;;;;;;;;;;27.34;29.03;100235.66;1083441;54;19946;-78
2022/08/11 08:48:00;;;;;;;;;;;;;;;27.53;29.00;100234.31;1084175;39;20425;-76
2022/08/11 08:49:03;;;;;;;;;;;;;;;27.70;28.95;100226.03;1083593;54;20034;-76
2022/08/11 08:50:09;;;;;;;;;;;;;;;27.92;28.76;100233.44;1083609;54;19938;-78
2022/08/11 08:52:39;;;;;;;;;;;;;;;28.20;27.61;100228.00;1083430;54;19951;-76
2022/08/11 08:53:45;;;;;;;;;;;;;;;28.30;27.19;100231.69;1083309;54;19962;-75
2022/08/11 08:54:52;;;;;;;;;;;;;;;28.40;27.04;100228.25;1083533;54;19946;-77
2022/08/11 08:55:55;;;;;;;;;;;;;;;28.62;27.12;100236.41;1083397;54;19947;-79
2022/08/11 08:57:04;;;;;;;;;;;;;;;28.78;27.02;100228.31;1083154;54;20444;-77
2022/08/11 08:58:06;;;;;;;;;;;;;;;28.72;26.61;100230.19;1083506;54;19938;-80
2022/08/11 08:59:11;;;;;;;;;;;;;;;28.78;26.54;100226.41;1083280;54;19943;-77
2022/08/11 09:00:14;;;;;;;;;;;;;;;28.81;26.43;100224.25;1083430;54;19939;-77
2022/08/11 09:01:19;;;;;;;;;;;;;;;29.00;26.44;100228.22;1083059;54;19965;-76
2022/08/11 09:02:24;;;;;;;;;;;;;;;28.93;26.28;100222.97;1083193;54;19973;-78
2022/08/11 09:03:28;;;;;;;;;;;;;;;28.53;26.21;100218.72;1084204;39;20408;-75
2022/08/11 09:04:30;;;;;;;;;;;;;;;28.40;26.59;100228.25;1083559;54;19962;-79
2022/08/11 09:05:34;;;;;;;;;;;;;;;28.56;26.62;100228.38;1083406;54;19942;-77
2022/08/11 09:06:38;;;;;;;;;;;;;;;28.35;26.29;100214.44;1083399;54;19939;-77
2022/08/11 09:07:46;;;;;;;;;;;;;;;28.59;26.32;100225.13;1083367;54;19939;-76
2022/08/11 09:08:48;;;;;;;;;;;;;;;28.49;26.17;100221.19;1084208;31;20445;-76
2022/08/11 09:09:53;;;;;;;;;;;;;;;28.47;26.34;100217.84;1083008;54;19939;-77
2022/08/11 09:12:14;;;;;;;;;;;;;;;28.70;25.57;100220.53;1082996;54;19953;-77
2022/08/11 09:13:15;;;;;;;;;;;;;;;28.54;25.99;100223.16;1083528;54;19989;-78
2022/08/11 09:14:19;;;;;;;;;;;;;;;28.39;25.93;100221.06;1083417;54;19990;-75
2022/08/11 09:15:22;;;;;;;;;;;;;;;28.33;25.89;100213.88;1083381;54;19947;-77
2022/08/11 09:16:26;;;;;;;;;;;;;;;28.28;25.86;100213.81;1083332;54;20093;-76
2022/08/11 09:17:29;;;;;;;;;;;;;;;28.41;25.90;100218.06;1083203;54;19947;-79
2022/08/11 09:18:33;;;;;;;;;;;;;;;28.65;25.83;100215.81;1083669;54;20034;-79
2022/08/11 09:19:34;;;;;;;;;;;;;;;28.95;25.39;100211.69;1083175;54;19947;-76
2022/08/11 09:20:40;;;;;;;;;;;;;;;28.95;25.39;100212.50;1083479;39;20336;-77
2022/08/11 09:21:41;;;;;;;;;;;;;;;29.02;25.72;100206.78;1083038;54;19953;-76
2022/08/11 09:28:04;;;;;;;;;;;;;;;29.20;24.44;100211.03;1083422;54;19946;-77
2022/08/11 09:29:09;;;;;;;;;;;;;;;29.25;24.79;100205.56;1083577;54;20098;-78
2022/08/11 09:30:11;;;;;;;;;;;;;;;29.31;24.23;100217.44;1083401;46;19973;-77
2022/08/11 09:31:16;;;;;;;;;;;;;;;29.37;23.89;100212.81;1083396;54;19938;-77
2022/08/11 09:32:19;;;;;;;;;;;;;;;29.48;23.48;100216.44;1083097;54;20433;-77
2022/08/11 09:33:24;;;;;;;;;;;;;;;29.62;23.54;100217.63;1083476;47;19946;-79
2022/08/11 09:34:26;;;;;;;;;;;;;;;29.70;23.59;100216.31;1083391;54;19953;-77
2022/08/11 09:35:31;;;;;;;;;;;;;;;29.94;23.39;100211.19;1083327;54;19946;-77
2022/08/11 09:40:32;;;;;;;;;;;;;;;29.95;22.42;100207.31;1083215;54;19951;-75
2022/08/11 09:41:34;;;;;;;;;;;;;;;30.08;22.61;100202.41;1083506;54;19953;-77
2022/08/11 09:45:12;;;;;;;;;;;;;;;29.66;22.68;100202.22;1084131;54;19981;-77
2022/08/11 09:46:14;;;;;;;;;;;;;;;29.57;22.51;100206.59;1083730;46;19946;-77
2022/08/11 09:47:21;;;;;;;;;;;;;;;29.72;22.59;100198.41;1082552;54;19947;-74
2022/08/11 09:48:23;;;;;;;;;;;;;;;29.63;22.09;100211.03;1082790;54;19946;-76
2022/08/11 09:49:28;;;;;;;;;;;;;;;29.78;21.76;100206.66;1082994;54;19978;-77
2022/08/11 09:50:30;;;;;;;;;;;;;;;29.86;21.57;100203.41;1083284;54;20615;-75
2022/08/11 09:51:35;;;;;;;;;;;;;;;30.11;21.44;100199.09;1083324;54;19947;-76
2022/08/11 09:52:37;;;;;;;;;;;;;;;30.17;21.08;100192.50;1083412;54;19946;-76
2022/08/11 09:53:45;;;;;;;;;;;;;;;30.17;21.48;100189.75;1083423;54;19946;-76
2022/08/11 09:54:46;;;;;;;;;;;;;;;30.21;21.58;100198.28;1083214;54;19950;-76
2022/08/11 09:55:50;;;;;;;;;;;;;;;30.17;21.54;100195.25;1083154;54;19947;-76
2022/08/11 09:58:12;;;;;;;;;;;;;;;30.32;20.66;100183.44;1082867;54;19942;-77
2022/08/11 09:59:13;;;;;;;;;;;;;;;30.47;21.12;100188.94;1083540;54;20042;-77
2022/08/11 10:00:22;;;;;;;;;;;;;;;30.45;20.34;100193.94;1083816;54;19946;-74
2022/08/11 10:01:30;;;;;;;;;;;;;;;30.56;20.73;100186.50;1083558;54;20332;-77
2022/08/11 10:02:31;;;;;;;;;;;;;;;30.62;20.68;100188.16;1083337;54;19951;-76
2022/08/11 10:03:38;;;;;;;;;;;;;;;30.63;20.12;100180.72;1083235;54;19946;-76
2022/08/11 10:04:44;;;;;;;;;;;;;;;30.86;20.08;100193.13;1083656;54;20293;-78
2022/08/11 10:07:05;;;;;;;;;;;;;;;30.69;20.36;100181.56;1084214;54;19938;-79
2022/08/11 10:08:08;;;;;;;;;;;;;;;30.26;20.47;100187.28;1083615;54;19947;-78
2022/08/11 10:09:15;;;;;;;;;;;;;;;30.31;20.66;100184.53;1083604;54;19946;-78
2022/08/11 10:10:21;;;;;;;;;;;;;;;30.35;19.70;100180.94;1083561;54;19978;-78
2022/08/11 10:11:26;;;;;;;;;;;;;;;30.44;20.03;100186.75;1084071;54;19998;-77
2022/08/11 10:12:33;;;;;;;;;;;;;;;30.46;19.89;100183.72;1084568;54;20489;-79
2022/08/11 10:15:32;;;;;;;;;;;;;;;30.53;19.68;100173.25;1084311;54;19947;-79
2022/08/11 10:16:23;;;;;;;;;;;;;;;30.84;19.47;100166.94;1083462;54;19950;-78
2022/08/11 10:17:27;;;;;;;;;;;;;;;30.91;19.50;100171.03;1084378;54;19993;-75
2022/08/11 10:18:41;;;;;;;;;;;;;;;30.94;19.37;100162.22;1085201;46;19958;-76
2022/08/11 10:19:47;;;;;;;;;;;;;;;30.73;19.39;100168.84;1085049;54;19950;-77
2022/08/11 10:20:49;;;;;;;;;;;;;;;30.77;19.77;100168.03;1084350;54;20433;-79
2022/08/11 10:27:02;;;;;;;;;;;;;;;29.92;19.84;100180.28;1083061;54;20469;-77
2022/08/11 10:28:08;;;;;;;;;;;;;;;30.06;19.74;100166.84;1083458;54;19946;-78
2022/08/11 10:34:23;;;;;;;;;;;;;;;30.60;18.93;100150.94;1083301;54;19986;-76
2022/08/11 10:35:25;;;;;;;;;;;;;;;30.69;19.07;100159.50;1083140;54;19970;-74
2022/08/11 10:36:30;;;;;;;;;;;;;;;30.76;18.98;100149.81;1083318;54;19947;-78
2022/08/11 10:37:35;;;;;;;;;;;;;;;30.77;19.02;100148.72;1083934;39;20353;-76
2022/08/11 10:38:39;;;;;;;;;;;;;;;30.89;18.90;100151.16;1083795;39;20297;-75
2022/08/11 10:39:47;;;;;;;;;;;;;;;30.74;18.72;100145.69;1084991;54;19938;-77
2022/08/11 10:43:01;;;;;;;;;;;;;;;30.54;19.07;100152.88;1083373;54;19951;-78
2022/08/11 10:43:29;;;;;;;;;;;;;;;30.22;18.59;100137.41;1083181;54;19985;-78
2022/08/11 10:44:37;;;;;;;;;;;;;;;30.28;18.54;100135.44;1083633;54;19953;-78
2022/08/11 10:48:11;;;;;;;;;;;;;;;30.11;18.75;100144.00;1083332;54;20455;-77
2022/08/11 10:49:16;;;;;;;;;;;;;;;30.25;18.98;100139.59;1083443;54;20464;-77
2022/08/11 10:59:17;;;;;;;;;;;;;;;29.64;19.83;100140.25;1083530;54;19986;-78
2022/08/11 11:00:18;;;;;;;;;;;;;;;29.62;19.83;100139.69;1083420;39;20427;-78
2022/08/11 11:01:24;;;;;;;;;;;;;;;29.62;20.16;100129.50;1083510;54;20030;-76
2022/08/11 11:02:26;;;;;;;;;;;;;;;29.46;19.48;100125.06;1083420;54;19950;-75
2022/08/11 11:03:33;;;;;;;;;;;;;;;29.39;19.86;100128.84;1083311;54;20463;-77
2022/08/11 11:04:43;;;;;;;;;;;;;;;29.61;19.81;100138.06;1084154;39;20306;-77
2022/08/11 11:05:45;;;;;;;;;;;;;;;29.54;19.45;100135.53;1083289;54;19946;-77
2022/08/11 11:06:52;;;;;;;;;;;;;;;29.60;19.30;100120.69;1083735;39;20357;-77
2022/08/11 11:07:59;;;;;;;;;;;;;;;29.67;19.69;100128.69;1083314;54;20028;-78
2022/08/11 11:09:04;;;;;;;;;;;;;;;29.60;19.81;100134.47;1083415;54;19951;-76
2022/08/11 11:10:08;;;;;;;;;;;;;;;29.58;19.80;100125.63;1083144;54;19947;-77
2022/08/11 11:11:15;;;;;;;;;;;;;;;29.51;19.65;100114.88;1083360;54;19947;-78
2022/08/11 11:18:49;;;;;;;;;;;;;;;29.52;19.99;100113.75;1083537;54;20061;-80
2022/08/11 11:19:55;;;;;;;;;;;;;;;29.47;19.98;100097.25;1083842;54;19950;-76
2022/08/11 11:21:00;;;;;;;;;;;;;;;29.41;20.13;100093.63;1083902;39;20317;-78
2022/08/11 11:22:36;;;;;;;;;;;;;;;29.55;19.93;100117.94;1083352;54;20047;-79
2022/08/11 11:23:27;;;;;;;;;;;;;;;29.55;19.74;100112.41;1083098;54;19946;-74
2022/08/11 11:24:36;;;;;;;;;;;;;;;29.53;20.10;100115.41;1083090;54;19939;-77
2022/08/11 11:26:05;;;;;;;;;;;;;;;29.50;19.84;100123.41;1082959;54;19969;-77
2022/08/11 11:27:16;;;;;;;;;;;;;;;29.35;19.79;100108.50;1082714;54;19962;-78
2022/08/11 11:28:31;;;;;;;;;;;;;;;29.37;19.92;100110.97;1083564;54;19947;-77
2022/08/11 11:29:45;;;;;;;;;;;;;;;29.41;19.89;100115.66;1083171;54;19939;-78
2022/08/11 11:30:51;;;;;;;;;;;;;;;29.47;19.34;100107.44;1083005;54;19947;-76
2022/08/11 11:32:00;;;;;;;;;;;;;;;29.59;19.65;100108.00;1083237;54;19946;-76
2022/08/11 11:33:10;;;;;;;;;;;;;;;29.60;19.92;100106.91;1083282;54;19947;-78
2022/08/11 11:34:20;;;;;;;;;;;;;;;29.71;19.88;100119.63;1083307;54;19962;-78
2022/08/11 11:35:37;;;;;;;;;;;;;;;29.62;19.56;100104.72;1083308;54;19970;-77
2022/08/11 11:36:44;;;;;;;;;;;;;;;29.63;19.76;100108.28;1083094;54;19985;-76
2022/08/11 11:37:50;;;;;;;;;;;;;;;29.64;19.69;100105.28;1083216;54;19950;-77
2022/08/11 11:38:55;;;;;;;;;;;;;;;29.54;19.63;100108.81;1083070;54;19974;-78
2022/08/11 11:40:00;;;;;;;;;;;;;;;29.62;19.83;100095.63;1082945;54;19969;-79
2022/08/11 11:42:23;;;;;;;;;;;;;;;29.53;19.60;100098.09;1082997;54;19958;-77
2022/08/11 11:43:24;;;;;;;;;;;;;;;29.58;19.91;100089.84;1083699;39;20613;-78
2022/08/11 11:44:29;;;;;;;;;;;;;;;29.57;19.42;100099.19;1083329;54;19950;-77
2022/08/11 11:45:31;;;;;;;;;;;;;;;29.59;19.62;100090.69;1083395;47;19985;-78
2022/08/11 11:46:35;;;;;;;;;;;;;;;29.59;19.44;100087.91;1084430;54;19973;-76
2022/08/11 11:47:37;;;;;;;;;;;;;;;29.53;19.44;100078.81;1086163;54;19947;-76
2022/08/11 11:48:42;;;;;;;;;;;;;;;29.61;19.72;100089.28;1085574;54;19946;-77
2022/08/11 11:49:44;;;;;;;;;;;;;;;29.67;20.25;100079.94;1084869;54;19951;-75
2022/08/11 11:50:48;;;;;;;;;;;;;;;29.78;19.72;100085.47;1083401;47;20455;-77
2022/08/11 11:51:51;;;;;;;;;;;;;;;29.74;19.95;100074.19;1083258;54;20440;-77
2022/08/11 11:52:56;;;;;;;;;;;;;;;29.69;20.06;100071.44;1083438;46;20459;-77
2022/08/11 11:53:57;;;;;;;;;;;;;;;29.51;20.28;100081.84;1083637;39;20361;-77
2022/08/11 11:55:01;;;;;;;;;;;;;;;29.42;20.28;100075.22;1084027;31;20453;-77
2022/08/11 11:56:03;;;;;;;;;;;;;;;29.33;20.03;100077.66;1083213;54;19950;-77
2022/08/11 12:02:16;;;;;;;;;;;;;;;29.42;20.19;100062.25;1082952;54;20449;-75
2022/08/11 12:03:18;;;;;;;;;;;;;;;29.42;20.32;100065.00;1083155;54;19961;-77
2022/08/11 12:04:23;;;;;;;;;;;;;;;29.40;20.20;100060.88;1083149;54;19947;-77
2022/08/11 12:05:25;;;;;;;;;;;;;;;29.44;20.06;100052.91;1083480;47;20671;-76
2022/08/11 12:06:29;;;;;;;;;;;;;;;29.47;20.05;100068.91;1082983;54;19947;-77
2022/08/11 12:08:50;;;;;;;;;;;;;;;29.67;20.03;100057.91;1083932;39;20403;-76
2022/08/11 12:09:52;;;;;;;;;;;;;;;29.76;19.88;100057.41;1083019;54;19978;-79
2022/08/11 12:13:42;;;;;;;;;;;;;;;29.71;20.34;100056.28;1083597;54;19967;-77
2022/08/11 12:14:43;;;;;;;;;;;;;;;29.76;20.30;100047.19;1083545;54;19982;-78
2022/08/11 12:15:47;;;;;;;;;;;;;;;29.78;20.18;100046.91;1083532;54;19950;-79
2022/08/11 12:16:51;;;;;;;;;;;;;;;29.85;19.99;100055.75;1083051;54;19946;-79
2022/08/11 12:17:53;;;;;;;;;;;;;;;29.93;20.13;100058.00;1083476;54;19947;-79
2022/08/11 12:18:58;;;;;;;;;;;;;;;29.78;19.75;100052.41;1083122;54;19985;-76
2022/08/11 12:19:59;;;;;;;;;;;;;;;29.65;20.00;100040.00;1083139;54;19974;-77
2022/08/11 12:21:04;;;;;;;;;;;;;;;29.71;20.02;100048.00;1083183;54;19947;-79
2022/08/11 12:27:26;;;;;;;;;;;;;;;29.88;19.62;100057.94;1083276;54;19969;-78
2022/08/11 12:28:30;;;;;;;;;;;;;;;29.83;19.28;100053.25;1083511;47;19953;-77
2022/08/11 12:29:34;;;;;;;;;;;;;;;29.90;19.08;100044.72;1083064;54;19957;-77
2022/08/11 12:30:35;;;;;;;;;;;;;;;29.91;18.89;100048.31;1081542;54;20425;-77
2022/08/11 12:31:39;;;;;;;;;;;;;;;29.95;19.32;100049.44;1082834;54;19947;-77
2022/08/11 12:32:44;;;;;;;;;;;;;;;30.01;19.30;100053.84;1083153;54;19951;-76
2022/08/11 12:33:45;;;;;;;;;;;;;;;30.04;18.83;100045.88;1083104;54;20445;-78
2022/08/11 12:34:50;;;;;;;;;;;;;;;29.97;18.96;100050.81;1083249;54;19946;-77
2022/08/11 12:35:58;;;;;;;;;;;;;;;29.94;19.09;100042.28;1083625;39;20357;-77
2022/08/11 12:37:09;;;;;;;;;;;;;;;29.91;19.28;100043.63;1084164;39;20353;-77
2022/08/11 12:38:14;;;;;;;;;;;;;;;29.93;19.47;100049.75;1082520;54;19947;-77
2022/08/11 12:45:26;;;;;;;;;;;;;;;29.90;19.24;100033.72;1083176;54;19948;-78
2022/08/11 12:46:00;;;;;;;;;;;;;;;29.76;19.04;100027.09;1083229;54;19954;-77
2022/08/11 12:47:05;;;;;;;;;;;;;;;29.87;18.98;100028.75;1084214;54;19950;-76
2022/08/11 12:52:07;;;;;;;;;;;;;;;29.79;19.37;100021.88;1083044;54;19982;-78
2022/08/11 12:53:11;;;;;;;;;;;;;;;29.84;19.26;100019.09;1083384;54;20429;-79
2022/08/11 12:54:17;;;;;;;;;;;;;;;29.97;19.46;100023.28;1083144;54;20047;-77
2022/08/11 13:05:57;;;;;;;;;;;;;;;30.02;18.34;100003.16;1082659;54;19945;-77
2022/08/11 13:07:02;;;;;;;;;;;;;;;29.98;18.77;100007.59;1082464;54;20544;-77
2022/08/11 13:08:06;;;;;;;;;;;;;;;29.95;18.86;100000.66;1082516;54;19942;-76
2022/08/11 13:09:11;;;;;;;;;;;;;;;29.99;18.59;99989.94;1082565;54;19951;-76
2022/08/11 13:10:14;;;;;;;;;;;;;;;30.03;18.89;99991.88;1082591;54;19947;-76
2022/08/11 13:13:55;;;;;;;;;;;;;;;30.08;18.89;99995.72;1083480;39;20417;-77
2022/08/11 13:14:57;;;;;;;;;;;;;;;30.17;18.92;99988.53;1083336;54;19950;-76
2022/08/11 13:16:03;;;;;;;;;;;;;;;30.21;18.91;99997.94;1083378;54;20057;-77
2022/08/11 13:18:26;;;;;;;;;;;;;;;30.21;18.59;99986.91;1083528;39;20385;-76
2022/08/11 13:19:28;;;;;;;;;;;;;;;30.21;18.99;99980.53;1083355;54;19962;-76
2022/08/11 13:20:32;;;;;;;;;;;;;;;30.18;19.05;99981.94;1083378;54;20026;-78
2022/08/11 13:21:33;;;;;;;;;;;;;;;30.05;18.79;99986.09;1083321;54;19938;-76
2022/08/11 13:22:38;;;;;;;;;;;;;;;30.17;19.26;99994.06;1082972;54;19950;-78
2022/08/11 13:23:43;;;;;;;;;;;;;;;30.06;18.92;99995.16;1083072;54;19938;-76
2022/08/11 13:24:45;;;;;;;;;;;;;;;30.02;18.76;99992.97;1083381;54;20041;-76
2022/08/11 13:25:49;;;;;;;;;;;;;;;30.13;19.01;99979.19;1083398;54;19946;-76
2022/08/11 13:26:50;;;;;;;;;;;;;;;30.02;18.69;99981.13;1083136;54;19942;-76
2022/08/11 13:27:57;;;;;;;;;;;;;;;29.98;18.90;99986.34;1082987;54;20034;-76
2022/08/11 13:28:58;;;;;;;;;;;;;;;29.98;18.84;99980.84;1083162;54;19951;-78
2022/08/11 13:31:22;;;;;;;;;;;;;;;30.11;18.91;99987.72;1083044;54;20441;-77
2022/08/11 13:32:30;;;;;;;;;;;;;;;30.17;18.46;99983.88;1083228;54;19957;-76
2022/08/11 13:33:38;;;;;;;;;;;;;;;30.27;18.48;99983.03;1083280;54;19958;-76
2022/08/11 13:34:43;;;;;;;;;;;;;;;30.37;18.56;99975.84;1083274;54;20472;-78
2022/08/11 13:35:45;;;;;;;;;;;;;;;30.35;18.27;99973.38;1082973;54;19950;-78
2022/08/11 13:36:50;;;;;;;;;;;;;;;30.42;18.07;99979.41;1082956;54;19939;-77
2022/08/11 13:37:56;;;;;;;;;;;;;;;30.48;18.20;99966.44;1082940;54;19973;-77
2022/08/11 13:38:57;;;;;;;;;;;;;;;30.50;18.47;99975.25;1083125;54;20101;-77
2022/08/11 13:40:01;;;;;;;;;;;;;;;30.42;18.23;99968.38;1084773;39;20680;-77
2022/08/11 13:41:36;;;;;;;;;;;;;;;30.52;18.19;99966.69;1083807;54;19939;-77
2022/08/11 13:42:27;;;;;;;;;;;;;;;30.42;18.30;99959.31;1083523;54;19985;-77
2022/08/11 13:43:31;;;;;;;;;;;;;;;30.39;18.27;99968.13;1083849;54;19962;-76
2022/08/11 13:44:35;;;;;;;;;;;;;;;30.35;18.27;99959.59;1084190;39;20345;-76
2022/08/11 13:45:39;;;;;;;;;;;;;;;30.33;18.27;99965.34;1083526;54;19970;-77
2022/08/11 13:46:43;;;;;;;;;;;;;;;30.32;18.63;99960.94;1083240;46;19965;-76
2022/08/11 13:47:48;;;;;;;;;;;;;;;30.30;18.51;99960.41;1083080;54;19946;-77
2022/08/11 13:48:50;;;;;;;;;;;;;;;30.24;18.37;99964.28;1083095;54;19981;-80
2022/08/11 13:49:55;;;;;;;;;;;;;;;30.29;18.60;99958.78;1083080;54;20449;-76
2022/08/11 13:52:16;;;;;;;;;;;;;;;30.30;17.89;99943.88;1082911;54;20448;-77
2022/08/11 13:53:20;;;;;;;;;;;;;;;30.33;18.23;99957.09;1083190;46;19977;-77
2022/08/11 13:54:25;;;;;;;;;;;;;;;30.39;18.27;99952.38;1083200;54;19969;-76
2022/08/11 13:55:26;;;;;;;;;;;;;;;30.50;17.89;99953.22;1083136;54;19947;-77
2022/08/11 13:56:32;;;;;;;;;;;;;;;30.46;18.00;99957.63;1083579;39;20337;-77
2022/08/11 13:57:37;;;;;;;;;;;;;;;30.50;18.13;99951.25;1083200;54;19950;-77
2022/08/11 13:58:38;;;;;;;;;;;;;;;30.57;18.22;99952.91;1083327;54;19973;-77
2022/08/11 13:59:42;;;;;;;;;;;;;;;30.55;18.23;99958.72;1083069;54;20492;-77
2022/08/11 14:00:47;;;;;;;;;;;;;;;30.65;17.92;99961.44;1083108;54;19946;-77
2022/08/11 14:01:55;;;;;;;;;;;;;;;30.70;18.10;99959.78;1083106;54;19953;-77
2022/08/11 14:02:59;;;;;;;;;;;;;;;30.73;18.25;99950.94;1083121;46;19977;-77
2022/08/11 14:04:04;;;;;;;;;;;;;;;30.80;17.67;99951.44;1083189;54;19946;-77
2022/08/11 14:05:11;;;;;;;;;;;;;;;30.85;17.55;99950.59;1083398;54;20464;-78
2022/08/11 14:06:14;;;;;;;;;;;;;;;30.87;17.35;99952.00;1083190;54;19999;-77
2022/08/11 14:07:21;;;;;;;;;;;;;;;30.93;17.31;99961.88;1083330;54;19946;-77
2022/08/11 14:08:28;;;;;;;;;;;;;;;30.87;17.26;99956.66;1083102;54;20506;-77
2022/08/11 14:09:33;;;;;;;;;;;;;;;30.78;17.68;99953.69;1083216;54;19946;-77
2022/08/11 14:10:39;;;;;;;;;;;;;;;30.74;17.71;99949.84;1083249;54;19947;-76
2022/08/11 14:14:20;;;;;;;;;;;;;;;30.70;18.35;99946.00;1083257;54;19988;-77
2022/08/11 14:15:25;;;;;;;;;;;;;;;30.58;18.21;99938.88;1083322;54;19969;-77
2022/08/11 14:16:29;;;;;;;;;;;;;;;30.71;18.03;99942.09;1083278;54;19947;-77
2022/08/11 14:17:37;;;;;;;;;;;;;;;30.68;18.13;99945.44;1083084;54;19973;-77
2022/08/11 14:18:41;;;;;;;;;;;;;;;30.61;17.65;99937.47;1083156;54;19974;-77
2022/08/11 14:19:49;;;;;;;;;;;;;;;30.57;18.22;99939.97;1083036;54;19958;-77
2022/08/11 14:22:12;;;;;;;;;;;;;;;30.50;17.94;99920.94;1082956;54;19950;-77
2022/08/11 14:23:14;;;;;;;;;;;;;;;30.54;18.43;99926.72;1083018;54;19951;-77
2022/08/11 14:24:20;;;;;;;;;;;;;;;30.48;18.21;99919.56;1083351;46;19955;-76
2022/08/11 14:25:21;;;;;;;;;;;;;;;30.40;18.08;99925.66;1083154;54;19946;-76
2022/08/11 14:26:25;;;;;;;;;;;;;;;30.46;18.42;99925.38;1083158;54;19950;-76
2022/08/11 14:27:30;;;;;;;;;;;;;;;30.60;18.26;99928.38;1083038;54;20449;-77
2022/08/11 14:28:36;;;;;;;;;;;;;;;30.69;18.20;99925.84;1083660;39;20353;-77
2022/08/11 14:29:39;;;;;;;;;;;;;;;30.81;18.51;99925.50;1083295;54;20434;-76
2022/08/11 14:30:58;;;;;;;;;;;;;;;30.78;17.78;99926.09;1082979;54;19943;-77
2022/08/11 14:32:04;;;;;;;;;;;;;;;30.86;18.19;99933.78;1083244;54;19950;-77
2022/08/11 14:33:08;;;;;;;;;;;;;;;30.91;17.97;99925.47;1083166;54;19946;-76
2022/08/11 14:34:13;;;;;;;;;;;;;;;30.85;17.72;99932.13;1083033;54;20038;-77
2022/08/11 14:35:15;;;;;;;;;;;;;;;30.76;17.56;99936.59;1083086;54;19970;-77
2022/08/11 14:36:19;;;;;;;;;;;;;;;30.59;17.88;99929.50;1083214;54;20535;-77
2022/08/11 14:37:28;;;;;;;;;;;;;;;30.52;17.71;99933.63;1082899;54;19950;-77
2022/08/11 14:38:36;;;;;;;;;;;;;;;30.51;17.58;99938.31;1083412;39;20583;-76
2022/08/11 14:39:42;;;;;;;;;;;;;;;30.50;17.98;99925.63;1083090;54;19946;-76
2022/08/11 14:47:14;;;;;;;;;;;;;;;30.91;17.54;99911.66;1083061;54;20041;-78
2022/08/11 14:48:20;;;;;;;;;;;;;;;30.98;17.74;99914.13;1083407;54;19950;-77
2022/08/11 14:49:25;;;;;;;;;;;;;;;31.00;17.75;99909.16;1083462;54;19958;-77
2022/08/11 14:50:30;;;;;;;;;;;;;;;31.04;18.12;99909.41;1083279;54;20457;-77
2022/08/11 14:51:32;;;;;;;;;;;;;;;31.12;18.23;99914.34;1083260;54;19951;-77
